This is the latest recevied weather packets stored in our database for station/object DB0LS-15. If no packets are shown the sender has not sent any weather packets the latest 10 day(s).
| Time | Temp. | Humidity | Pressure | Rain* | Wind** | Luminosity | Snow |
|---|---|---|---|---|---|---|---|
| 1777899945 | 22.22° C | 49% | 994 hPa | 0 mm | - | - | - |
| 1777899341 | 22.78° C | 49% | 994.1 hPa | 0 mm | - | - | - |
| 1777898737 | 22.22° C | 50% | 994.1 hPa | 0 mm | - | - | - |
| 1777898133 | 22.22° C | 50% | 994.1 hPa | 0 mm | - | - | - |
| 1777897529 | 22.22° C | 50% | 994.2 hPa | 0 mm | - | - | - |
| 1777896926 | 22.78° C | 49% | 994.3 hPa | 0 mm | - | - | - |
| 1777896322 | 22.22° C | 51% | 994.3 hPa | 0 mm | - | - | - |
| 1777895718 | 21.67° C | 51% | 994.3 hPa | 0 mm | - | - | - |
| 1777895175 | 22.22° C | 50% | 994.3 hPa | 0 mm | - | - | - |
| 1777894571 | 21.67° C | 51% | 994.4 hPa | 0 mm | - | - | - |
| 1777893967 | 22.22° C | 51% | 994.4 hPa | 0 mm | - | - | - |
| 1777893363 | 22.22° C | 51% | 994.6 hPa | 0 mm | - | - | - |
| 1777892759 | 22.22° C | 51% | 994.5 hPa | 0 mm | - | - | - |
| 1777892156 | 21.67° C | 52% | 994.8 hPa | 0 mm | - | - | - |
| 1777891552 | 21.67° C | 50% | 995 hPa | 0 mm | - | - | - |
| 1777890948 | 21.11° C | 54% | 994.9 hPa | 0 mm | - | - | - |
| 1777890344 | 22.22° C | 52% | 995.1 hPa | 0 mm | - | - | - |
| 1777889741 | 20.56° C | 53% | 995.2 hPa | 0 mm | - | - | - |
| 1777889136 | 21.11° C | 53% | 995.3 hPa | 0 mm | - | - | - |
| 1777888533 | 21.11° C | 54% | 995.3 hPa | 0 mm | - | - | - |
| 1777887959 | 20.56° C | 56% | 995.5 hPa | 0 mm | - | - | - |
| 1777887355 | 20° C | 57% | 995.6 hPa | 0 mm | - | - | - |
| 1777886751 | 20° C | 57% | 995.6 hPa | 0 mm | - | - | - |
| 1777886148 | 20° C | 57% | 995.7 hPa | 0 mm | - | - | - |
| 1777885544 | 19.44° C | 58% | 995.7 hPa | 0 mm | - | - | - |
* Rain latest hour (hover to see other rain measurements)
** Current wind speed in m/s (hover to see current wind gust speed)